Sandane, Sandane Airport (ENSD)

NameSandane Airport
CitySandane
CountryNorway
ICAOENSD
IATASDN
Altitude60 m
CoordinatesGoogle Map
Live Air TrafficLiveATC.net
METARENSD 201950Z 05005KT 9999 FEW032 BKN036 06/04 Q1016 RMK WIND 1138FT 30005KT
2019-10-20 19:50:00 Wind: Northeast (50°) 2.57 m/s - Visibility: > 10000 m - Temperature: 6 °C - Dew point: 4 °C - Humidity: 87.2% - Pressure: 1016 hPa
Statistics

The table below shows the detailed information of all flights to/from Sandane, Sandane Airport (ENSD).